Artie, West Virginia
Current Conditions -  °F | °C
As of 4:51 AM on Tuesday 27 Jan 2015 (Local Time) from KBKW Reporting Station
Overcast Overcast  
Wind Chill: -14°   Ceiling: 1900
Heat Index: -7°   Visibility: 9mi
Dew Point: -11°   Wind: 10mph
Humidity: 74%   Direction: 320°NW
Pressure: 29.77"   Gusts: NA
Location:  37.93°N, 81.36°W
Report Text: KBKW 270951Z AUTO 32009KT 9SM OVC019 M07/M11 A2977 RMK AO2 SNE48 SLP120 P0000 T10721111
Loading
Personal Weather Stations






























Interactive Weather Map New forecast layout! Learn more

10-Day Weather Forecast

Advertisements
Track Severe Weather on mobile